sensor_id;sensor_type;location;lat;lon;timestamp;P1;durP1;ratioP1;P2;durP2;ratioP2
25345;SDS011;13300;51.032;3.710;2023-02-28T00:30:25;9.63;;;4.50;;
25345;SDS011;13300;51.032;3.710;2023-02-28T00:33:38;10.50;;;4.35;;
25345;SDS011;13300;51.032;3.710;2023-02-28T00:53:25;6.75;;;4.45;;
25345;SDS011;13300;51.032;3.710;2023-02-28T00:56:36;10.15;;;5.32;;
25345;SDS011;13300;51.032;3.710;2023-02-28T01:03:15;10.98;;;5.38;;
25345;SDS011;13300;51.032;3.710;2023-02-28T01:06:47;11.52;;;5.05;;
25345;SDS011;13300;51.032;3.710;2023-02-28T01:13:02;7.57;;;5.20;;
25345;SDS011;13300;51.032;3.710;2023-02-28T01:50:16;10.68;;;5.25;;
25345;SDS011;13300;51.032;3.710;2023-02-28T01:53:44;8.40;;;5.80;;
25345;SDS011;13300;51.032;3.710;2023-02-28T02:00:19;11.02;;;5.80;;
25345;SDS011;13300;51.032;3.710;2023-02-28T02:03:43;8.93;;;5.43;;
25345;SDS011;13300;51.032;3.710;2023-02-28T02:07:07;8.13;;;5.47;;
25345;SDS011;13300;51.032;3.710;2023-02-28T02:41:55;8.60;;;5.88;;
25345;SDS011;13300;51.032;3.710;2023-02-28T02:51:49;9.32;;;6.45;;
25345;SDS011;13300;51.032;3.710;2023-02-28T02:55:10;12.68;;;6.63;;
25345;SDS011;13300;51.032;3.710;2023-02-28T02:58:22;8.23;;;6.10;;
25345;SDS011;13300;51.032;3.710;2023-02-28T04:44:18;10.77;;;6.13;;
25345;SDS011;13300;51.032;3.710;2023-02-28T04:55:14;9.18;;;6.28;;
25345;SDS011;13300;51.032;3.710;2023-02-28T05:52:03;12.00;;;7.35;;
25345;SDS011;13300;51.032;3.710;2023-02-28T06:05:04;14.00;;;7.75;;
25345;SDS011;13300;51.032;3.710;2023-02-28T06:14:14;12.05;;;6.72;;
25345;SDS011;13300;51.032;3.710;2023-02-28T06:19:31;11.32;;;6.53;;
25345;SDS011;13300;51.032;3.710;2023-02-28T06:22:13;12.13;;;6.43;;
25345;SDS011;13300;51.032;3.710;2023-02-28T06:24:53;11.45;;;7.15;;
25345;SDS011;13300;51.032;3.710;2023-02-28T06:33:33;10.23;;;6.35;;
25345;SDS011;13300;51.032;3.710;2023-02-28T06:36:25;15.63;;;6.63;;
25345;SDS011;13300;51.032;3.710;2023-02-28T06:38:53;11.10;;;6.30;;
25345;SDS011;13300;51.032;3.710;2023-02-28T06:41:25;12.27;;;6.60;;
25345;SDS011;13300;51.032;3.710;2023-02-28T06:44:08;10.20;;;5.68;;
25345;SDS011;13300;51.032;3.710;2023-02-28T06:46:40;13.68;;;6.57;;
25345;SDS011;13300;51.032;3.710;2023-02-28T06:49:08;11.75;;;6.93;;
25345;SDS011;13300;51.032;3.710;2023-02-28T06:54:05;15.80;;;7.30;;
25345;SDS011;13300;51.032;3.710;2023-02-28T06:56:52;13.25;;;7.40;;
25345;SDS011;13300;51.032;3.710;2023-02-28T06:59:24;10.23;;;6.38;;
25345;SDS011;13300;51.032;3.710;2023-02-28T07:02:00;12.73;;;7.25;;
25345;SDS011;13300;51.032;3.710;2023-02-28T07:04:38;15.93;;;8.20;;
25345;SDS011;13300;51.032;3.710;2023-02-28T07:07:28;13.25;;;6.90;;
25345;SDS011;13300;51.032;3.710;2023-02-28T07:10:09;11.88;;;6.57;;
25345;SDS011;13300;51.032;3.710;2023-02-28T07:12:38;14.77;;;6.50;;
25345;SDS011;13300;51.032;3.710;2023-02-28T07:15:05;19.27;;;7.30;;
25345;SDS011;13300;51.032;3.710;2023-02-28T07:17:48;14.48;;;6.57;;
25345;SDS011;13300;51.032;3.710;2023-02-28T07:20:24;12.75;;;6.43;;
25345;SDS011;13300;51.032;3.710;2023-02-28T07:22:52;9.30;;;5.90;;
25345;SDS011;13300;51.032;3.710;2023-02-28T07:25:27;13.55;;;6.22;;
25345;SDS011;13300;51.032;3.710;2023-02-28T07:27:54;10.27;;;5.93;;
25345;SDS011;13300;51.032;3.710;2023-02-28T07:30:25;20.63;;;6.35;;
25345;SDS011;13300;51.032;3.710;2023-02-28T07:33:12;13.68;;;6.30;;
25345;SDS011;13300;51.032;3.710;2023-02-28T07:35:50;10.23;;;5.65;;
25345;SDS011;13300;51.032;3.710;2023-02-28T07:38:27;12.70;;;5.43;;
25345;SDS011;13300;51.032;3.710;2023-02-28T07:43:34;9.80;;;5.43;;
25345;SDS011;13300;51.032;3.710;2023-02-28T07:46:07;8.07;;;5.32;;
25345;SDS011;13300;51.032;3.710;2023-02-28T07:48:55;9.10;;;5.00;;
25345;SDS011;13300;51.032;3.710;2023-02-28T07:51:32;10.77;;;5.35;;
25345;SDS011;13300;51.032;3.710;2023-02-28T07:54:03;10.93;;;5.43;;
25345;SDS011;13300;51.032;3.710;2023-02-28T07:56:32;17.80;;;5.72;;
25345;SDS011;13300;51.032;3.710;2023-02-28T07:59:02;11.57;;;5.00;;
25345;SDS011;13300;51.032;3.710;2023-02-28T08:01:33;15.23;;;5.43;;
25345;SDS011;13300;51.032;3.710;2023-02-28T08:04:19;10.18;;;5.43;;
25345;SDS011;13300;51.032;3.710;2023-02-28T08:07:09;15.05;;;5.55;;
25345;SDS011;13300;51.032;3.710;2023-02-28T08:12:13;8.65;;;5.07;;
25345;SDS011;13300;51.032;3.710;2023-02-28T08:14:47;15.30;;;5.25;;
25345;SDS011;13300;51.032;3.710;2023-02-28T08:17:29;8.57;;;5.05;;
25345;SDS011;13300;51.032;3.710;2023-02-28T08:19:57;9.63;;;5.03;;
25345;SDS011;13300;51.032;3.710;2023-02-28T08:22:37;9.90;;;5.00;;
25345;SDS011;13300;51.032;3.710;2023-02-28T08:25:03;21.85;;;5.60;;
25345;SDS011;13300;51.032;3.710;2023-02-28T08:27:40;9.27;;;4.70;;
25345;SDS011;13300;51.032;3.710;2023-02-28T08:30:18;9.90;;;4.40;;
25345;SDS011;13300;51.032;3.710;2023-02-28T08:32:52;9.20;;;5.20;;
25345;SDS011;13300;51.032;3.710;2023-02-28T08:35:35;7.00;;;4.35;;
25345;SDS011;13300;51.032;3.710;2023-02-28T08:38:02;9.40;;;4.72;;
25345;SDS011;13300;51.032;3.710;2023-02-28T08:40:38;8.45;;;4.60;;
25345;SDS011;13300;51.032;3.710;2023-02-28T08:43:30;10.95;;;4.90;;
25345;SDS011;13300;51.032;3.710;2023-02-28T08:48:34;7.13;;;4.80;;
25345;SDS011;13300;51.032;3.710;2023-02-28T08:54:20;8.52;;;4.50;;
25345;SDS011;13300;51.032;3.710;2023-02-28T08:56:58;14.15;;;5.00;;
25345;SDS011;13300;51.032;3.710;2023-02-28T08:59:30;9.70;;;4.60;;
25345;SDS011;13300;51.032;3.710;2023-02-28T09:02:05;14.18;;;4.85;;
25345;SDS011;13300;51.032;3.710;2023-02-28T09:04:42;74.32;;;8.43;;
25345;SDS011;13300;51.032;3.710;2023-02-28T09:07:44;9.10;;;4.35;;
25345;SDS011;13300;51.032;3.710;2023-02-28T09:10:16;6.40;;;3.90;;
25345;SDS011;13300;51.032;3.710;2023-02-28T09:12:49;7.20;;;4.45;;
25345;SDS011;13300;51.032;3.710;2023-02-28T09:15:29;11.07;;;4.53;;
25345;SDS011;13300;51.032;3.710;2023-02-28T09:18:07;10.90;;;4.38;;
25345;SDS011;13300;51.032;3.710;2023-02-28T09:20:45;13.82;;;4.22;;
25345;SDS011;13300;51.032;3.710;2023-02-28T09:23:18;9.38;;;3.95;;
25345;SDS011;13300;51.032;3.710;2023-02-28T09:25:54;10.88;;;4.30;;
25345;SDS011;13300;51.032;3.710;2023-02-28T09:28:23;15.65;;;4.82;;
25345;SDS011;13300;51.032;3.710;2023-02-28T09:30:57;6.60;;;4.07;;
25345;SDS011;13300;51.032;3.710;2023-02-28T09:33:32;9.98;;;4.55;;
25345;SDS011;13300;51.032;3.710;2023-02-28T09:38:48;9.43;;;3.97;;
25345;SDS011;13300;51.032;3.710;2023-02-28T09:41:24;9.75;;;4.13;;
25345;SDS011;13300;51.032;3.710;2023-02-28T09:44:12;8.60;;;3.97;;
25345;SDS011;13300;51.032;3.710;2023-02-28T09:50:34;28.48;;;5.75;;
25345;SDS011;13300;51.032;3.710;2023-02-28T09:53:37;35.55;;;6.35;;
25345;SDS011;13300;51.032;3.710;2023-02-28T09:59:18;6.15;;;3.40;;
25345;SDS011;13300;51.032;3.710;2023-02-28T10:08:36;6.93;;;3.35;;
25345;SDS011;13300;51.032;3.710;2023-02-28T10:11:22;8.52;;;3.30;;
25345;SDS011;13300;51.032;3.710;2023-02-28T10:14:04;11.50;;;3.83;;
25345;SDS011;13300;51.032;3.710;2023-02-28T10:19:21;18.00;;;5.00;;
25345;SDS011;13300;51.032;3.710;2023-02-28T10:22:12;9.50;;;3.70;;
25345;SDS011;13300;51.032;3.710;2023-02-28T10:25:23;35.80;;;5.68;;
25345;SDS011;13300;51.032;3.710;2023-02-28T10:31:52;9.27;;;3.42;;
25345;SDS011;13300;51.032;3.710;2023-02-28T10:37:50;10.95;;;4.57;;
25345;SDS011;13300;51.032;3.710;2023-02-28T10:40:42;8.93;;;3.22;;
25345;SDS011;13300;51.032;3.710;2023-02-28T10:45:58;14.38;;;3.85;;
25345;SDS011;13300;51.032;3.710;2023-02-28T10:52:00;4.88;;;2.63;;
25345;SDS011;13300;51.032;3.710;2023-02-28T11:00:24;7.30;;;3.30;;
25345;SDS011;13300;51.032;3.710;2023-02-28T11:03:04;5.30;;;2.10;;
25345;SDS011;13300;51.032;3.710;2023-02-28T11:14:52;3.55;;;2.05;;
25345;SDS011;13300;51.032;3.710;2023-02-28T12:06:52;4.75;;;1.83;;
25345;SDS011;13300;51.032;3.710;2023-02-28T12:35:04;4.82;;;1.73;;
25345;SDS011;13300;51.032;3.710;2023-02-28T12:41:02;2.75;;;2.10;;
25345;SDS011;13300;51.032;3.710;2023-02-28T12:43:52;2.17;;;1.88;;
25345;SDS011;13300;51.032;3.710;2023-02-28T12:50:02;2.88;;;1.70;;
25345;SDS011;13300;51.032;3.710;2023-02-28T12:56:07;2.38;;;2.00;;
25345;SDS011;13300;51.032;3.710;2023-02-28T12:59:03;4.07;;;1.88;;
25345;SDS011;13300;51.032;3.710;2023-02-28T13:01:51;2.50;;;1.65;;
25345;SDS011;13300;51.032;3.710;2023-02-28T13:13:29;3.35;;;1.80;;
25345;SDS011;13300;51.032;3.710;2023-02-28T13:16:10;4.63;;;1.70;;
25345;SDS011;13300;51.032;3.710;2023-02-28T13:18:37;3.05;;;1.52;;
25345;SDS011;13300;51.032;3.710;2023-02-28T13:21:07;2.53;;;1.88;;
25345;SDS011;13300;51.032;3.710;2023-02-28T13:29:32;2.25;;;1.75;;
25345;SDS011;13300;51.032;3.710;2023-02-28T13:37:37;3.08;;;1.60;;
25345;SDS011;13300;51.032;3.710;2023-02-28T13:40:27;1.50;;;1.40;;
25345;SDS011;13300;51.032;3.710;2023-02-28T13:43:09;3.33;;;1.80;;
25345;SDS011;13300;51.032;3.710;2023-02-28T13:45:44;2.20;;;1.58;;
25345;SDS011;13300;51.032;3.710;2023-02-28T13:48:36;3.35;;;1.65;;
25345;SDS011;13300;51.032;3.710;2023-02-28T13:51:25;2.67;;;2.00;;
25345;SDS011;13300;51.032;3.710;2023-02-28T13:54:24;2.95;;;1.85;;
25345;SDS011;13300;51.032;3.710;2023-02-28T13:57:04;2.17;;;1.65;;
25345;SDS011;13300;51.032;3.710;2023-02-28T14:05:29;3.60;;;2.05;;
25345;SDS011;13300;51.032;3.710;2023-02-28T14:08:02;2.95;;;2.15;;
25345;SDS011;13300;51.032;3.710;2023-02-28T14:10:46;2.13;;;1.50;;
25345;SDS011;13300;51.032;3.710;2023-02-28T14:13:47;5.15;;;1.88;;
25345;SDS011;13300;51.032;3.710;2023-02-28T14:16:14;3.78;;;1.92;;
25345;SDS011;13300;51.032;3.710;2023-02-28T14:19:01;4.72;;;1.88;;
25345;SDS011;13300;51.032;3.710;2023-02-28T14:36:23;4.82;;;2.20;;
25345;SDS011;13300;51.032;3.710;2023-02-28T14:38:59;2.95;;;1.98;;
25345;SDS011;13300;51.032;3.710;2023-02-28T14:41:36;3.95;;;2.50;;
25345;SDS011;13300;51.032;3.710;2023-02-28T14:44:26;5.93;;;3.08;;
25345;SDS011;13300;51.032;3.710;2023-02-28T14:46:56;3.60;;;2.50;;
25345;SDS011;13300;51.032;3.710;2023-02-28T14:54:35;3.17;;;2.67;;
25345;SDS011;13300;51.032;3.710;2023-02-28T14:57:19;3.80;;;2.30;;
25345;SDS011;13300;51.032;3.710;2023-02-28T15:02:30;7.40;;;2.63;;
25345;SDS011;13300;51.032;3.710;2023-02-28T15:07:46;4.68;;;2.58;;
25345;SDS011;13300;51.032;3.710;2023-02-28T15:10:24;2.67;;;2.20;;
25345;SDS011;13300;51.032;3.710;2023-02-28T15:12:58;5.70;;;2.60;;
25345;SDS011;13300;51.032;3.710;2023-02-28T15:18:27;4.07;;;2.45;;
25345;SDS011;13300;51.032;3.710;2023-02-28T15:21:00;2.75;;;2.50;;
25345;SDS011;13300;51.032;3.710;2023-02-28T15:23:30;3.38;;;2.60;;
25345;SDS011;13300;51.032;3.710;2023-02-28T15:25:58;4.10;;;2.53;;
25345;SDS011;13300;51.032;3.710;2023-02-28T15:28:31;3.08;;;2.40;;
25345;SDS011;13300;51.032;3.710;2023-02-28T15:31:02;4.32;;;2.67;;
25345;SDS011;13300;51.032;3.710;2023-02-28T15:33:29;4.78;;;2.53;;
25345;SDS011;13300;51.032;3.710;2023-02-28T15:36:16;4.78;;;2.80;;
25345;SDS011;13300;51.032;3.710;2023-02-28T15:38:50;4.20;;;3.28;;
25345;SDS011;13300;51.032;3.710;2023-02-28T15:41:27;6.63;;;2.92;;
25345;SDS011;13300;51.032;3.710;2023-02-28T15:47:14;7.68;;;3.20;;
25345;SDS011;13300;51.032;3.710;2023-02-28T15:49:55;4.03;;;2.95;;
25345;SDS011;13300;51.032;3.710;2023-02-28T15:57:34;3.63;;;2.65;;
25345;SDS011;13300;51.032;3.710;2023-02-28T16:00:02;6.00;;;3.17;;
25345;SDS011;13300;51.032;3.710;2023-02-28T16:02:34;3.42;;;2.83;;
25345;SDS011;13300;51.032;3.710;2023-02-28T16:07:40;4.85;;;3.08;;
25345;SDS011;13300;51.032;3.710;2023-02-28T16:10:08;4.00;;;2.90;;
25345;SDS011;13300;51.032;3.710;2023-02-28T16:12:36;3.28;;;2.58;;
25345;SDS011;13300;51.032;3.710;2023-02-28T16:15:23;3.97;;;2.40;;
25345;SDS011;13300;51.032;3.710;2023-02-28T16:17:56;4.75;;;2.72;;
25345;SDS011;13300;51.032;3.710;2023-02-28T16:20:23;4.75;;;2.63;;
25345;SDS011;13300;51.032;3.710;2023-02-28T16:22:51;5.07;;;2.88;;
25345;SDS011;13300;51.032;3.710;2023-02-28T16:25:18;3.83;;;2.70;;
25345;SDS011;13300;51.032;3.710;2023-02-28T16:27:48;7.07;;;3.20;;
25345;SDS011;13300;51.032;3.710;2023-02-28T16:49:34;4.78;;;3.00;;
25345;SDS011;13300;51.032;3.710;2023-02-28T16:52:06;4.03;;;3.13;;
25345;SDS011;13300;51.032;3.710;2023-02-28T16:54:38;5.43;;;2.80;;
25345;SDS011;13300;51.032;3.710;2023-02-28T16:57:06;7.88;;;3.22;;
25345;SDS011;13300;51.032;3.710;2023-02-28T16:59:41;8.80;;;3.55;;
25345;SDS011;13300;51.032;3.710;2023-02-28T17:02:15;7.05;;;3.63;;
25345;SDS011;13300;51.032;3.710;2023-02-28T17:05:19;5.75;;;3.35;;
25345;SDS011;13300;51.032;3.710;2023-02-28T17:18:00;7.03;;;3.88;;
25345;SDS011;13300;51.032;3.710;2023-02-28T18:12:31;10.18;;;4.50;;
25345;SDS011;13300;51.032;3.710;2023-02-28T18:18:12;5.10;;;3.60;;
25345;SDS011;13300;51.032;3.710;2023-02-28T18:31:08;8.45;;;4.72;;
25345;SDS011;13300;51.032;3.710;2023-02-28T18:33:37;9.18;;;4.32;;
25345;SDS011;13300;51.032;3.710;2023-02-28T18:36:03;14.48;;;7.65;;
25345;SDS011;13300;51.032;3.710;2023-02-28T18:38:38;7.75;;;4.88;;
25345;SDS011;13300;51.032;3.710;2023-02-28T18:44:45;9.07;;;5.55;;
25345;SDS011;13300;51.032;3.710;2023-02-28T18:50:37;8.43;;;5.60;;
25345;SDS011;13300;51.032;3.710;2023-02-28T18:56:41;8.43;;;5.70;;
25345;SDS011;13300;51.032;3.710;2023-02-28T18:59:07;13.02;;;7.88;;
25345;SDS011;13300;51.032;3.710;2023-02-28T19:01:35;17.95;;;9.40;;
25345;SDS011;13300;51.032;3.710;2023-02-28T19:04:04;16.40;;;8.20;;
25345;SDS011;13300;51.032;3.710;2023-02-28T22:24:04;9.50;;;6.10;;
25345;SDS011;13300;51.032;3.710;2023-02-28T22:26:43;12.95;;;6.45;;
25345;SDS011;13300;51.032;3.710;2023-02-28T22:32:35;15.10;;;8.40;;
25345;SDS011;13300;51.032;3.710;2023-02-28T22:35:07;19.08;;;8.70;;
25345;SDS011;13300;51.032;3.710;2023-02-28T23:30:22;12.32;;;7.13;;
25345;SDS011;13300;51.032;3.710;2023-02-28T23:37:26;11.63;;;6.70;;
